Why, Arizona
Current Conditions -  °F | °C
As of 5:15 PM on Thursday 27 Nov 2014 (Local Time) from KBXK Reporting Station
Clear Clear  
Wind Chill: 24°   Ceiling: Unl
Heat Index: 24°   Visibility: 10mi
Dew Point:   Wind: 0mph
Humidity: 21%   Direction: NA
Pressure: 30.06"   Gusts: NA
Location:  32.5298°N, 112.879°W
Report Text: KBXK 280015Z AUTO 00000KT 10SM CLR 24/00 A3006 RMK AO1
Loading
Personal Weather Stations






























Interactive Weather Map New forecast layout! Learn more

10-Day Weather Forecast

Advertisements
Track Severe Weather on mobile